Beemerville, New Jersey
Current Conditions -  °F | °C
As of 6:53 PM on Friday 19 Dec 2014 (Local Time) from KFWN Reporting Station
Overcast Overcast  
Wind Chill: 21°   Ceiling: 2400
Heat Index: 30°   Visibility: 10mi
Dew Point: 20°   Wind: 10mph
Humidity: 66%   Direction: 300°WNW
Pressure: 30.15"   Gusts: 16mph
Location:  41.2395°N, 74.6087°W
Report Text: KFWN 192353Z AUTO 30009G14KT 270V330 10SM OVC024 M01/M07 A3015 RMK AO2 SLP215 T10111067 10006 21017 53024
Loading
Personal Weather Stations






























Interactive Weather Map New forecast layout! Learn more

10-Day Weather Forecast

Advertisements
Track Severe Weather on mobile